sensor_id;sensor_type;location;lat;lon;timestamp;P1;durP1;ratioP1;P2;durP2;ratioP2
16450;SDS011;12243;42.708;23.310;2023-04-28T00:00:50;5.90;;;3.10;;
16450;SDS011;12243;42.708;23.310;2023-04-28T00:03:17;3.23;;;2.90;;
16450;SDS011;12243;42.708;23.310;2023-04-28T00:05:44;7.00;;;2.93;;
16450;SDS011;12243;42.708;23.310;2023-04-28T00:08:11;3.03;;;2.73;;
16450;SDS011;12243;42.708;23.310;2023-04-28T00:10:39;4.87;;;3.40;;
16450;SDS011;12243;42.708;23.310;2023-04-28T00:13:06;7.63;;;2.83;;
16450;SDS011;12243;42.708;23.310;2023-04-28T00:15:33;2.57;;;2.30;;
16450;SDS011;12243;42.708;23.310;2023-04-28T00:18:00;4.37;;;2.50;;
16450;SDS011;12243;42.708;23.310;2023-04-28T00:20:26;4.27;;;2.67;;
16450;SDS011;12243;42.708;23.310;2023-04-28T00:22:53;3.97;;;2.73;;
16450;SDS011;12243;42.708;23.310;2023-04-28T00:25:20;3.30;;;2.73;;
16450;SDS011;12243;42.708;23.310;2023-04-28T00:27:48;4.50;;;2.70;;
16450;SDS011;12243;42.708;23.310;2023-04-28T00:30:15;2.77;;;2.57;;
16450;SDS011;12243;42.708;23.310;2023-04-28T00:32:43;3.50;;;2.70;;
16450;SDS011;12243;42.708;23.310;2023-04-28T00:35:09;3.70;;;2.50;;
16450;SDS011;12243;42.708;23.310;2023-04-28T00:37:37;2.63;;;2.20;;
16450;SDS011;12243;42.708;23.310;2023-04-28T00:40:05;2.63;;;2.40;;
16450;SDS011;12243;42.708;23.310;2023-04-28T00:42:32;4.13;;;2.87;;
16450;SDS011;12243;42.708;23.310;2023-04-28T00:45:01;6.07;;;3.40;;
16450;SDS011;12243;42.708;23.310;2023-04-28T00:47:31;3.37;;;2.67;;
16450;SDS011;12243;42.708;23.310;2023-04-28T00:49:58;2.97;;;2.77;;
16450;SDS011;12243;42.708;23.310;2023-04-28T00:52:26;3.43;;;2.57;;
16450;SDS011;12243;42.708;23.310;2023-04-28T00:54:53;2.67;;;2.57;;
16450;SDS011;12243;42.708;23.310;2023-04-28T00:57:20;2.37;;;2.17;;
16450;SDS011;12243;42.708;23.310;2023-04-28T00:59:47;5.90;;;3.47;;
16450;SDS011;12243;42.708;23.310;2023-04-28T01:02:16;5.00;;;2.87;;
16450;SDS011;12243;42.708;23.310;2023-04-28T01:04:44;2.93;;;2.60;;
16450;SDS011;12243;42.708;23.310;2023-04-28T01:07:11;4.60;;;2.80;;
16450;SDS011;12243;42.708;23.310;2023-04-28T01:09:38;3.03;;;2.83;;
16450;SDS011;12243;42.708;23.310;2023-04-28T01:12:07;4.60;;;2.90;;
16450;SDS011;12243;42.708;23.310;2023-04-28T01:14:46;5.10;;;2.77;;
16450;SDS011;12243;42.708;23.310;2023-04-28T01:17:15;3.47;;;2.87;;
16450;SDS011;12243;42.708;23.310;2023-04-28T01:19:43;4.40;;;2.83;;
16450;SDS011;12243;42.708;23.310;2023-04-28T01:22:10;2.80;;;2.60;;
16450;SDS011;12243;42.708;23.310;2023-04-28T01:24:40;3.83;;;2.73;;
16450;SDS011;12243;42.708;23.310;2023-04-28T01:27:09;4.67;;;2.40;;
16450;SDS011;12243;42.708;23.310;2023-04-28T01:29:37;4.27;;;3.93;;
16450;SDS011;12243;42.708;23.310;2023-04-28T01:32:05;4.77;;;2.90;;
16450;SDS011;12243;42.708;23.310;2023-04-28T01:34:32;4.40;;;2.67;;
16450;SDS011;12243;42.708;23.310;2023-04-28T01:36:59;3.00;;;2.70;;
16450;SDS011;12243;42.708;23.310;2023-04-28T01:39:26;4.97;;;3.43;;
16450;SDS011;12243;42.708;23.310;2023-04-28T01:41:56;7.20;;;3.30;;
16450;SDS011;12243;42.708;23.310;2023-04-28T01:44:23;3.30;;;2.47;;
16450;SDS011;12243;42.708;23.310;2023-04-28T01:46:50;8.27;;;3.00;;
16450;SDS011;12243;42.708;23.310;2023-04-28T01:49:20;4.63;;;3.17;;
16450;SDS011;12243;42.708;23.310;2023-04-28T01:51:48;5.77;;;3.43;;
16450;SDS011;12243;42.708;23.310;2023-04-28T01:54:15;5.63;;;3.27;;
16450;SDS011;12243;42.708;23.310;2023-04-28T01:56:42;3.17;;;2.70;;
16450;SDS011;12243;42.708;23.310;2023-04-28T01:59:12;3.13;;;2.67;;
16450;SDS011;12243;42.708;23.310;2023-04-28T02:01:40;4.67;;;3.10;;
16450;SDS011;12243;42.708;23.310;2023-04-28T02:04:07;5.17;;;2.80;;
16450;SDS011;12243;42.708;23.310;2023-04-28T02:06:36;6.00;;;3.03;;
16450;SDS011;12243;42.708;23.310;2023-04-28T02:09:03;4.77;;;3.20;;
16450;SDS011;12243;42.708;23.310;2023-04-28T02:11:32;5.63;;;3.43;;
16450;SDS011;12243;42.708;23.310;2023-04-28T02:13:58;4.77;;;3.23;;
16450;SDS011;12243;42.708;23.310;2023-04-28T02:16:27;3.60;;;2.93;;
16450;SDS011;12243;42.708;23.310;2023-04-28T02:18:53;2.97;;;2.77;;
16450;SDS011;12243;42.708;23.310;2023-04-28T02:21:20;7.17;;;3.17;;
16450;SDS011;12243;42.708;23.310;2023-04-28T02:23:47;3.20;;;2.90;;
16450;SDS011;12243;42.708;23.310;2023-04-28T02:26:14;3.33;;;3.03;;
16450;SDS011;12243;42.708;23.310;2023-04-28T02:28:41;4.67;;;3.27;;
16450;SDS011;12243;42.708;23.310;2023-04-28T02:31:09;2.77;;;2.57;;
16450;SDS011;12243;42.708;23.310;2023-04-28T02:33:39;10.00;;;3.33;;
16450;SDS011;12243;42.708;23.310;2023-04-28T02:36:07;3.80;;;3.43;;
16450;SDS011;12243;42.708;23.310;2023-04-28T02:38:35;6.73;;;3.10;;
16450;SDS011;12243;42.708;23.310;2023-04-28T02:41:02;5.23;;;3.20;;
16450;SDS011;12243;42.708;23.310;2023-04-28T02:43:30;3.13;;;2.87;;
16450;SDS011;12243;42.708;23.310;2023-04-28T02:45:58;4.67;;;3.00;;
16450;SDS011;12243;42.708;23.310;2023-04-28T02:48:25;3.67;;;3.07;;
16450;SDS011;12243;42.708;23.310;2023-04-28T02:50:53;3.53;;;3.10;;
16450;SDS011;12243;42.708;23.310;2023-04-28T02:53:21;4.70;;;3.00;;
16450;SDS011;12243;42.708;23.310;2023-04-28T02:55:48;3.67;;;2.93;;
16450;SDS011;12243;42.708;23.310;2023-04-28T02:58:15;7.20;;;2.97;;
16450;SDS011;12243;42.708;23.310;2023-04-28T03:00:43;9.20;;;3.10;;
16450;SDS011;12243;42.708;23.310;2023-04-28T03:03:10;6.60;;;3.40;;
16450;SDS011;12243;42.708;23.310;2023-04-28T03:05:38;3.60;;;3.30;;
16450;SDS011;12243;42.708;23.310;2023-04-28T03:08:06;9.43;;;3.30;;
16450;SDS011;12243;42.708;23.310;2023-04-28T03:10:33;3.73;;;3.00;;
16450;SDS011;12243;42.708;23.310;2023-04-28T03:13:01;4.03;;;2.80;;
16450;SDS011;12243;42.708;23.310;2023-04-28T03:15:29;4.53;;;3.20;;
16450;SDS011;12243;42.708;23.310;2023-04-28T03:17:56;3.87;;;3.17;;
16450;SDS011;12243;42.708;23.310;2023-04-28T03:20:23;5.80;;;3.20;;
16450;SDS011;12243;42.708;23.310;2023-04-28T03:22:50;3.77;;;3.17;;
16450;SDS011;12243;42.708;23.310;2023-04-28T03:25:19;5.80;;;4.00;;
16450;SDS011;12243;42.708;23.310;2023-04-28T03:27:50;6.37;;;3.20;;
16450;SDS011;12243;42.708;23.310;2023-04-28T03:30:17;3.97;;;3.27;;
16450;SDS011;12243;42.708;23.310;2023-04-28T03:32:44;4.07;;;3.60;;
16450;SDS011;12243;42.708;23.310;2023-04-28T03:35:11;6.10;;;3.97;;
16450;SDS011;12243;42.708;23.310;2023-04-28T03:37:39;6.60;;;3.90;;
16450;SDS011;12243;42.708;23.310;2023-04-28T03:40:07;6.17;;;3.33;;
16450;SDS011;12243;42.708;23.310;2023-04-28T03:42:59;3.90;;;3.60;;
16450;SDS011;12243;42.708;23.310;2023-04-28T03:45:34;7.00;;;3.87;;
16450;SDS011;12243;42.708;23.310;2023-04-28T03:48:01;3.83;;;3.40;;
16450;SDS011;12243;42.708;23.310;2023-04-28T03:50:28;3.47;;;2.90;;
16450;SDS011;12243;42.708;23.310;2023-04-28T03:52:55;3.57;;;3.07;;
16450;SDS011;12243;42.708;23.310;2023-04-28T03:55:22;3.87;;;3.47;;
16450;SDS011;12243;42.708;23.310;2023-04-28T03:57:51;3.80;;;3.47;;
16450;SDS011;12243;42.708;23.310;2023-04-28T04:00:19;6.43;;;3.20;;
16450;SDS011;12243;42.708;23.310;2023-04-28T04:02:50;3.63;;;3.30;;
16450;SDS011;12243;42.708;23.310;2023-04-28T04:05:17;5.03;;;3.53;;
16450;SDS011;12243;42.708;23.310;2023-04-28T04:07:44;8.87;;;3.50;;
16450;SDS011;12243;42.708;23.310;2023-04-28T04:10:11;3.93;;;3.20;;
16450;SDS011;12243;42.708;23.310;2023-04-28T04:12:41;5.53;;;3.37;;
16450;SDS011;12243;42.708;23.310;2023-04-28T04:15:08;9.47;;;3.83;;
16450;SDS011;12243;42.708;23.310;2023-04-28T04:17:41;6.07;;;3.50;;
16450;SDS011;12243;42.708;23.310;2023-04-28T04:20:08;6.50;;;3.77;;
16450;SDS011;12243;42.708;23.310;2023-04-28T04:22:36;7.30;;;3.70;;
16450;SDS011;12243;42.708;23.310;2023-04-28T04:25:03;7.67;;;3.70;;
16450;SDS011;12243;42.708;23.310;2023-04-28T04:27:32;5.10;;;3.40;;
16450;SDS011;12243;42.708;23.310;2023-04-28T04:30:00;3.87;;;2.77;;
16450;SDS011;12243;42.708;23.310;2023-04-28T04:32:26;3.03;;;2.83;;
16450;SDS011;12243;42.708;23.310;2023-04-28T04:34:55;5.87;;;3.37;;
16450;SDS011;12243;42.708;23.310;2023-04-28T04:37:22;4.10;;;3.17;;
16450;SDS011;12243;42.708;23.310;2023-04-28T04:39:58;2.67;;;2.30;;
16450;SDS011;12243;42.708;23.310;2023-04-28T04:42:26;4.17;;;2.80;;
16450;SDS011;12243;42.708;23.310;2023-04-28T04:45:12;4.63;;;2.87;;
16450;SDS011;12243;42.708;23.310;2023-04-28T04:47:40;6.30;;;3.03;;
16450;SDS011;12243;42.708;23.310;2023-04-28T04:50:09;4.77;;;3.00;;
16450;SDS011;12243;42.708;23.310;2023-04-28T04:52:37;3.10;;;2.90;;
16450;SDS011;12243;42.708;23.310;2023-04-28T04:55:06;8.20;;;5.13;;
16450;SDS011;12243;42.708;23.310;2023-04-28T04:57:36;4.33;;;3.10;;
16450;SDS011;12243;42.708;23.310;2023-04-28T05:00:26;3.73;;;2.50;;
16450;SDS011;12243;42.708;23.310;2023-04-28T05:02:53;3.60;;;3.30;;
16450;SDS011;12243;42.708;23.310;2023-04-28T05:05:22;4.13;;;3.03;;
16450;SDS011;12243;42.708;23.310;2023-04-28T05:08:01;5.53;;;3.60;;
16450;SDS011;12243;42.708;23.310;2023-04-28T05:10:28;3.37;;;2.73;;
16450;SDS011;12243;42.708;23.310;2023-04-28T05:13:00;7.37;;;2.93;;
16450;SDS011;12243;42.708;23.310;2023-04-28T05:15:27;2.90;;;2.70;;
16450;SDS011;12243;42.708;23.310;2023-04-28T05:18:26;3.30;;;3.00;;
16450;SDS011;12243;42.708;23.310;2023-04-28T05:20:55;6.80;;;2.77;;
16450;SDS011;12243;42.708;23.310;2023-04-28T05:23:22;3.60;;;3.17;;
16450;SDS011;12243;42.708;23.310;2023-04-28T05:25:50;5.03;;;3.17;;
16450;SDS011;12243;42.708;23.310;2023-04-28T05:28:17;4.83;;;2.87;;
16450;SDS011;12243;42.708;23.310;2023-04-28T05:30:44;4.67;;;2.53;;
16450;SDS011;12243;42.708;23.310;2023-04-28T05:33:12;5.57;;;3.13;;
16450;SDS011;12243;42.708;23.310;2023-04-28T05:35:39;3.47;;;3.13;;
16450;SDS011;12243;42.708;23.310;2023-04-28T05:38:08;3.50;;;3.07;;
16450;SDS011;12243;42.708;23.310;2023-04-28T05:40:35;6.53;;;3.80;;
16450;SDS011;12243;42.708;23.310;2023-04-28T05:43:02;5.13;;;3.10;;
16450;SDS011;12243;42.708;23.310;2023-04-28T05:45:29;5.37;;;3.03;;
16450;SDS011;12243;42.708;23.310;2023-04-28T05:47:56;2.80;;;2.60;;
16450;SDS011;12243;42.708;23.310;2023-04-28T05:50:23;4.80;;;3.07;;
16450;SDS011;12243;42.708;23.310;2023-04-28T05:52:50;4.03;;;3.10;;
16450;SDS011;12243;42.708;23.310;2023-04-28T05:55:18;3.87;;;2.90;;
16450;SDS011;12243;42.708;23.310;2023-04-28T05:57:46;8.80;;;2.90;;
16450;SDS011;12243;42.708;23.310;2023-04-28T06:00:13;6.23;;;3.30;;
16450;SDS011;12243;42.708;23.310;2023-04-28T06:02:41;6.53;;;3.90;;
16450;SDS011;12243;42.708;23.310;2023-04-28T06:05:08;7.20;;;3.50;;
16450;SDS011;12243;42.708;23.310;2023-04-28T06:07:35;3.73;;;3.10;;
16450;SDS011;12243;42.708;23.310;2023-04-28T06:10:02;6.90;;;3.57;;
16450;SDS011;12243;42.708;23.310;2023-04-28T06:12:31;4.30;;;2.83;;
16450;SDS011;12243;42.708;23.310;2023-04-28T06:14:59;3.63;;;3.27;;
16450;SDS011;12243;42.708;23.310;2023-04-28T06:17:26;4.63;;;3.17;;
16450;SDS011;12243;42.708;23.310;2023-04-28T06:19:55;4.77;;;2.90;;
16450;SDS011;12243;42.708;23.310;2023-04-28T06:22:23;6.13;;;3.00;;
16450;SDS011;12243;42.708;23.310;2023-04-28T06:24:50;3.60;;;2.80;;
16450;SDS011;12243;42.708;23.310;2023-04-28T06:27:23;6.70;;;2.80;;
16450;SDS011;12243;42.708;23.310;2023-04-28T06:29:52;4.53;;;3.07;;
16450;SDS011;12243;42.708;23.310;2023-04-28T06:32:19;3.33;;;2.87;;
16450;SDS011;12243;42.708;23.310;2023-04-28T06:34:46;5.77;;;2.90;;
16450;SDS011;12243;42.708;23.310;2023-04-28T06:37:13;4.80;;;3.50;;
16450;SDS011;12243;42.708;23.310;2023-04-28T06:39:40;4.63;;;3.23;;
16450;SDS011;12243;42.708;23.310;2023-04-28T06:42:07;5.70;;;3.30;;
16450;SDS011;12243;42.708;23.310;2023-04-28T06:44:40;2.93;;;2.67;;
16450;SDS011;12243;42.708;23.310;2023-04-28T06:47:09;4.77;;;3.47;;
16450;SDS011;12243;42.708;23.310;2023-04-28T06:49:37;3.40;;;3.10;;
16450;SDS011;12243;42.708;23.310;2023-04-28T06:52:04;4.87;;;3.07;;
16450;SDS011;12243;42.708;23.310;2023-04-28T06:54:32;3.83;;;3.17;;
16450;SDS011;12243;42.708;23.310;2023-04-28T06:56:59;5.27;;;2.90;;
16450;SDS011;12243;42.708;23.310;2023-04-28T06:59:26;4.60;;;2.90;;
16450;SDS011;12243;42.708;23.310;2023-04-28T07:01:53;5.03;;;2.73;;
16450;SDS011;12243;42.708;23.310;2023-04-28T07:04:23;3.40;;;3.10;;
16450;SDS011;12243;42.708;23.310;2023-04-28T07:06:50;6.73;;;3.20;;
16450;SDS011;12243;42.708;23.310;2023-04-28T07:09:17;3.47;;;3.00;;
16450;SDS011;12243;42.708;23.310;2023-04-28T07:11:44;6.20;;;2.63;;
16450;SDS011;12243;42.708;23.310;2023-04-28T07:14:11;3.83;;;2.80;;
16450;SDS011;12243;42.708;23.310;2023-04-28T07:16:38;10.03;;;2.87;;
16450;SDS011;12243;42.708;23.310;2023-04-28T07:19:05;6.97;;;3.67;;
16450;SDS011;12243;42.708;23.310;2023-04-28T07:21:33;3.00;;;2.37;;
16450;SDS011;12243;42.708;23.310;2023-04-28T07:24:00;5.73;;;3.03;;
16450;SDS011;12243;42.708;23.310;2023-04-28T07:26:27;5.73;;;3.00;;
16450;SDS011;12243;42.708;23.310;2023-04-28T07:28:54;9.03;;;2.87;;
16450;SDS011;12243;42.708;23.310;2023-04-28T07:31:21;6.07;;;2.90;;
16450;SDS011;12243;42.708;23.310;2023-04-28T07:33:48;3.60;;;3.30;;
16450;SDS011;12243;42.708;23.310;2023-04-28T07:36:15;3.30;;;2.87;;
16450;SDS011;12243;42.708;23.310;2023-04-28T07:38:43;5.50;;;2.87;;
16450;SDS011;12243;42.708;23.310;2023-04-28T07:41:10;3.23;;;2.40;;
16450;SDS011;12243;42.708;23.310;2023-04-28T07:43:37;5.23;;;2.67;;
16450;SDS011;12243;42.708;23.310;2023-04-28T07:46:05;2.30;;;2.20;;
16450;SDS011;12243;42.708;23.310;2023-04-28T07:48:32;2.57;;;2.37;;
16450;SDS011;12243;42.708;23.310;2023-04-28T07:50:59;3.47;;;2.70;;
16450;SDS011;12243;42.708;23.310;2023-04-28T07:53:26;3.97;;;2.50;;
16450;SDS011;12243;42.708;23.310;2023-04-28T07:55:55;2.43;;;2.13;;
16450;SDS011;12243;42.708;23.310;2023-04-28T07:58:22;2.70;;;2.10;;
16450;SDS011;12243;42.708;23.310;2023-04-28T08:00:48;2.40;;;2.30;;
16450;SDS011;12243;42.708;23.310;2023-04-28T08:03:15;2.43;;;2.00;;
16450;SDS011;12243;42.708;23.310;2023-04-28T08:05:42;4.20;;;2.00;;
16450;SDS011;12243;42.708;23.310;2023-04-28T08:08:09;2.37;;;2.17;;
16450;SDS011;12243;42.708;23.310;2023-04-28T08:10:36;4.57;;;2.40;;
16450;SDS011;12243;42.708;23.310;2023-04-28T08:13:07;3.67;;;2.37;;
16450;SDS011;12243;42.708;23.310;2023-04-28T08:15:34;4.93;;;2.60;;
16450;SDS011;12243;42.708;23.310;2023-04-28T08:18:01;3.63;;;2.40;;
16450;SDS011;12243;42.708;23.310;2023-04-28T08:20:28;2.43;;;2.23;;
16450;SDS011;12243;42.708;23.310;2023-04-28T08:22:56;2.40;;;2.20;;
16450;SDS011;12243;42.708;23.310;2023-04-28T08:25:23;5.20;;;3.00;;
16450;SDS011;12243;42.708;23.310;2023-04-28T08:27:50;4.47;;;2.77;;
16450;SDS011;12243;42.708;23.310;2023-04-28T08:30:21;3.43;;;2.50;;
16450;SDS011;12243;42.708;23.310;2023-04-28T08:32:48;4.10;;;2.43;;
16450;SDS011;12243;42.708;23.310;2023-04-28T08:35:15;3.87;;;2.70;;
16450;SDS011;12243;42.708;23.310;2023-04-28T08:37:43;3.90;;;3.60;;
16450;SDS011;12243;42.708;23.310;2023-04-28T08:40:10;7.00;;;3.70;;
16450;SDS011;12243;42.708;23.310;2023-04-28T08:42:38;7.47;;;3.10;;
16450;SDS011;12243;42.708;23.310;2023-04-28T08:45:06;3.20;;;2.10;;
16450;SDS011;12243;42.708;23.310;2023-04-28T08:47:36;2.93;;;2.27;;
16450;SDS011;12243;42.708;23.310;2023-04-28T08:50:05;7.03;;;2.53;;
16450;SDS011;12243;42.708;23.310;2023-04-28T08:52:33;2.70;;;2.50;;
16450;SDS011;12243;42.708;23.310;2023-04-28T08:55:04;4.17;;;2.70;;
16450;SDS011;12243;42.708;23.310;2023-04-28T08:57:34;7.33;;;4.20;;
16450;SDS011;12243;42.708;23.310;2023-04-28T09:00:03;5.63;;;2.40;;
16450;SDS011;12243;42.708;23.310;2023-04-28T09:02:31;5.67;;;2.77;;
16450;SDS011;12243;42.708;23.310;2023-04-28T09:04:59;4.17;;;2.87;;
16450;SDS011;12243;42.708;23.310;2023-04-28T09:07:26;2.83;;;2.57;;
16450;SDS011;12243;42.708;23.310;2023-04-28T09:10:07;2.70;;;2.03;;
16450;SDS011;12243;42.708;23.310;2023-04-28T09:12:41;3.27;;;2.80;;
16450;SDS011;12243;42.708;23.310;2023-04-28T09:15:08;7.80;;;3.50;;
16450;SDS011;12243;42.708;23.310;2023-04-28T09:17:46;3.30;;;2.50;;
16450;SDS011;12243;42.708;23.310;2023-04-28T09:20:19;4.23;;;2.60;;
16450;SDS011;12243;42.708;23.310;2023-04-28T09:22:47;3.40;;;2.50;;
16450;SDS011;12243;42.708;23.310;2023-04-28T09:25:14;2.73;;;2.30;;
16450;SDS011;12243;42.708;23.310;2023-04-28T09:27:42;4.67;;;2.80;;
16450;SDS011;12243;42.708;23.310;2023-04-28T09:30:09;2.30;;;2.10;;
16450;SDS011;12243;42.708;23.310;2023-04-28T09:32:36;3.77;;;2.47;;
16450;SDS011;12243;42.708;23.310;2023-04-28T09:35:04;2.60;;;2.37;;
16450;SDS011;12243;42.708;23.310;2023-04-28T09:37:33;4.83;;;2.20;;
16450;SDS011;12243;42.708;23.310;2023-04-28T09:40:05;2.63;;;2.20;;
16450;SDS011;12243;42.708;23.310;2023-04-28T09:42:34;6.00;;;2.80;;
16450;SDS011;12243;42.708;23.310;2023-04-28T09:45:02;3.63;;;2.17;;
16450;SDS011;12243;42.708;23.310;2023-04-28T09:47:30;3.10;;;2.10;;
16450;SDS011;12243;42.708;23.310;2023-04-28T09:49:59;3.30;;;2.30;;
16450;SDS011;12243;42.708;23.310;2023-04-28T09:52:28;2.93;;;2.10;;
16450;SDS011;12243;42.708;23.310;2023-04-28T09:54:56;9.35;;;2.60;;
16450;SDS011;12243;42.708;23.310;2023-04-28T09:57:24;3.00;;;2.30;;
16450;SDS011;12243;42.708;23.310;2023-04-28T09:59:52;3.87;;;2.17;;
16450;SDS011;12243;42.708;23.310;2023-04-28T10:02:20;5.07;;;2.30;;
16450;SDS011;12243;42.708;23.310;2023-04-28T10:04:48;3.05;;;2.00;;
16450;SDS011;12243;42.708;23.310;2023-04-28T10:07:16;3.30;;;1.98;;
16450;SDS011;12243;42.708;23.310;2023-04-28T10:09:45;2.40;;;2.20;;
16450;SDS011;12243;42.708;23.310;2023-04-28T10:12:16;2.30;;;2.10;;
16450;SDS011;12243;42.708;23.310;2023-04-28T10:14:43;2.80;;;1.87;;
16450;SDS011;12243;42.708;23.310;2023-04-28T10:17:11;2.10;;;1.90;;
16450;SDS011;12243;42.708;23.310;2023-04-28T10:19:40;4.27;;;1.73;;
16450;SDS011;12243;42.708;23.310;2023-04-28T10:22:23;2.43;;;1.97;;
16450;SDS011;12243;42.708;23.310;2023-04-28T10:25:07;4.77;;;2.10;;
16450;SDS011;12243;42.708;23.310;2023-04-28T10:27:50;2.80;;;1.80;;
16450;SDS011;12243;42.708;23.310;2023-04-28T10:30:21;3.53;;;2.07;;
16450;SDS011;12243;42.708;23.310;2023-04-28T10:33:21;2.17;;;1.77;;
16450;SDS011;12243;42.708;23.310;2023-04-28T10:35:53;4.90;;;2.00;;
16450;SDS011;12243;42.708;23.310;2023-04-28T10:38:20;2.85;;;1.88;;
16450;SDS011;12243;42.708;23.310;2023-04-28T10:40:47;2.55;;;2.00;;
16450;SDS011;12243;42.708;23.310;2023-04-28T10:46:05;1.90;;;1.70;;
16450;SDS011;12243;42.708;23.310;2023-04-28T10:48:54;3.28;;;1.90;;
16450;SDS011;12243;42.708;23.310;2023-04-28T10:51:23;2.90;;;2.00;;
16450;SDS011;12243;42.708;23.310;2023-04-28T10:54:06;4.47;;;1.80;;
16450;SDS011;12243;42.708;23.310;2023-04-28T10:59:46;6.72;;;1.90;;
16450;SDS011;12243;42.708;23.310;2023-04-28T11:05:14;3.40;;;2.20;;
16450;SDS011;12243;42.708;23.310;2023-04-28T11:11:16;3.83;;;2.00;;
16450;SDS011;12243;42.708;23.310;2023-04-28T11:13:45;2.55;;;2.08;;
16450;SDS011;12243;42.708;23.310;2023-04-28T11:16:18;4.63;;;1.70;;
16450;SDS011;12243;42.708;23.310;2023-04-28T11:18:50;1.90;;;1.80;;
16450;SDS011;12243;42.708;23.310;2023-04-28T11:21:28;5.00;;;2.28;;
16450;SDS011;12243;42.708;23.310;2023-04-28T11:23:54;4.18;;;1.83;;
16450;SDS011;12243;42.708;23.310;2023-04-28T11:26:23;2.63;;;1.80;;
16450;SDS011;12243;42.708;23.310;2023-04-28T11:28:51;2.25;;;2.08;;
16450;SDS011;12243;42.708;23.310;2023-04-28T11:31:20;3.50;;;2.08;;
16450;SDS011;12243;42.708;23.310;2023-04-28T11:33:52;4.20;;;2.25;;
16450;SDS011;12243;42.708;23.310;2023-04-28T11:36:26;1.92;;;1.73;;
16450;SDS011;12243;42.708;23.310;2023-04-28T11:38:54;1.67;;;1.58;;
16450;SDS011;12243;42.708;23.310;2023-04-28T11:41:22;6.20;;;2.22;;
16450;SDS011;12243;42.708;23.310;2023-04-28T11:43:49;1.92;;;1.73;;
16450;SDS011;12243;42.708;23.310;2023-04-28T11:46:17;2.40;;;2.03;;
16450;SDS011;12243;42.708;23.310;2023-04-28T11:48:47;2.67;;;2.28;;
16450;SDS011;12243;42.708;23.310;2023-04-28T11:51:34;3.40;;;2.10;;
16450;SDS011;12243;42.708;23.310;2023-04-28T11:54:02;2.47;;;1.70;;
16450;SDS011;12243;42.708;23.310;2023-04-28T11:56:35;4.82;;;2.30;;
16450;SDS011;12243;42.708;23.310;2023-04-28T11:59:04;2.20;;;2.10;;
16450;SDS011;12243;42.708;23.310;2023-04-28T12:01:34;2.75;;;2.55;;
16450;SDS011;12243;42.708;23.310;2023-04-28T12:04:09;2.90;;;1.65;;
16450;SDS011;12243;42.708;23.310;2023-04-28T12:06:38;3.25;;;2.05;;
16450;SDS011;12243;42.708;23.310;2023-04-28T12:09:15;2.65;;;1.90;;
16450;SDS011;12243;42.708;23.310;2023-04-28T12:11:53;2.30;;;1.77;;
16450;SDS011;12243;42.708;23.310;2023-04-28T12:14:21;2.50;;;1.70;;
16450;SDS011;12243;42.708;23.310;2023-04-28T12:16:50;3.00;;;2.20;;
16450;SDS011;12243;42.708;23.310;2023-04-28T12:19:18;3.60;;;2.65;;
16450;SDS011;12243;42.708;23.310;2023-04-28T12:21:58;4.13;;;2.35;;
16450;SDS011;12243;42.708;23.310;2023-04-28T12:24:26;2.42;;;2.22;;
16450;SDS011;12243;42.708;23.310;2023-04-28T12:26:54;5.90;;;2.15;;
16450;SDS011;12243;42.708;23.310;2023-04-28T12:29:39;2.28;;;2.00;;
16450;SDS011;12243;42.708;23.310;2023-04-28T12:32:09;3.47;;;1.90;;
16450;SDS011;12243;42.708;23.310;2023-04-28T12:34:37;2.60;;;2.00;;
16450;SDS011;12243;42.708;23.310;2023-04-28T12:37:05;3.00;;;2.17;;
16450;SDS011;12243;42.708;23.310;2023-04-28T12:39:32;3.63;;;2.00;;
16450;SDS011;12243;42.708;23.310;2023-04-28T12:42:01;2.72;;;2.17;;
16450;SDS011;12243;42.708;23.310;2023-04-28T12:44:31;4.97;;;2.22;;
16450;SDS011;12243;42.708;23.310;2023-04-28T12:47:00;3.88;;;1.88;;
16450;SDS011;12243;42.708;23.310;2023-04-28T12:49:33;4.60;;;2.20;;
16450;SDS011;12243;42.708;23.310;2023-04-28T12:52:00;3.63;;;1.90;;
16450;SDS011;12243;42.708;23.310;2023-04-28T12:54:27;3.13;;;2.10;;
16450;SDS011;12243;42.708;23.310;2023-04-28T12:56:54;3.80;;;1.95;;
16450;SDS011;12243;42.708;23.310;2023-04-28T12:59:21;2.25;;;1.90;;
16450;SDS011;12243;42.708;23.310;2023-04-28T13:01:49;3.38;;;2.60;;
16450;SDS011;12243;42.708;23.310;2023-04-28T13:04:16;2.03;;;1.92;;
16450;SDS011;12243;42.708;23.310;2023-04-28T13:06:44;3.55;;;1.85;;
16450;SDS011;12243;42.708;23.310;2023-04-28T13:09:11;2.60;;;2.13;;
16450;SDS011;12243;42.708;23.310;2023-04-28T13:11:40;5.10;;;1.90;;
16450;SDS011;12243;42.708;23.310;2023-04-28T13:14:07;2.00;;;1.90;;
16450;SDS011;12243;42.708;23.310;2023-04-28T13:16:34;3.42;;;2.03;;
16450;SDS011;12243;42.708;23.310;2023-04-28T13:19:02;3.15;;;2.50;;
16450;SDS011;12243;42.708;23.310;2023-04-28T13:21:33;3.95;;;1.98;;
16450;SDS011;12243;42.708;23.310;2023-04-28T13:24:03;2.97;;;1.77;;
16450;SDS011;12243;42.708;23.310;2023-04-28T13:26:30;2.35;;;2.15;;
16450;SDS011;12243;42.708;23.310;2023-04-28T13:28:57;2.63;;;1.98;;
16450;SDS011;12243;42.708;23.310;2023-04-28T13:31:24;2.97;;;2.33;;
16450;SDS011;12243;42.708;23.310;2023-04-28T13:33:51;5.53;;;2.20;;
16450;SDS011;12243;42.708;23.310;2023-04-28T13:36:18;3.58;;;2.20;;
16450;SDS011;12243;42.708;23.310;2023-04-28T13:38:45;3.67;;;2.08;;
16450;SDS011;12243;42.708;23.310;2023-04-28T13:41:14;3.67;;;2.38;;
16450;SDS011;12243;42.708;23.310;2023-04-28T13:43:42;2.45;;;2.25;;
16450;SDS011;12243;42.708;23.310;2023-04-28T13:46:09;2.47;;;2.22;;
16450;SDS011;12243;42.708;23.310;2023-04-28T13:48:36;3.20;;;1.80;;
16450;SDS011;12243;42.708;23.310;2023-04-28T13:51:06;5.63;;;2.70;;
16450;SDS011;12243;42.708;23.310;2023-04-28T13:53:34;2.38;;;2.17;;
16450;SDS011;12243;42.708;23.310;2023-04-28T13:56:02;3.80;;;2.50;;
16450;SDS011;12243;42.708;23.310;2023-04-28T13:58:31;4.30;;;2.08;;
16450;SDS011;12243;42.708;23.310;2023-04-28T14:00:58;3.75;;;2.25;;
16450;SDS011;12243;42.708;23.310;2023-04-28T14:03:25;4.53;;;2.17;;
16450;SDS011;12243;42.708;23.310;2023-04-28T14:05:53;8.25;;;2.47;;
16450;SDS011;12243;42.708;23.310;2023-04-28T14:08:21;3.60;;;2.30;;
16450;SDS011;12243;42.708;23.310;2023-04-28T14:10:49;4.07;;;2.30;;
16450;SDS011;12243;42.708;23.310;2023-04-28T14:13:17;4.63;;;2.30;;
16450;SDS011;12243;42.708;23.310;2023-04-28T14:15:46;2.95;;;2.25;;
16450;SDS011;12243;42.708;23.310;2023-04-28T14:18:12;2.58;;;2.08;;
16450;SDS011;12243;42.708;23.310;2023-04-28T14:20:40;4.28;;;2.38;;
16450;SDS011;12243;42.708;23.310;2023-04-28T14:23:08;3.75;;;2.08;;
16450;SDS011;12243;42.708;23.310;2023-04-28T14:25:34;2.38;;;2.17;;
16450;SDS011;12243;42.708;23.310;2023-04-28T14:28:02;5.15;;;2.42;;
16450;SDS011;12243;42.708;23.310;2023-04-28T14:30:29;4.05;;;1.80;;
16450;SDS011;12243;42.708;23.310;2023-04-28T14:32:57;3.33;;;2.20;;
16450;SDS011;12243;42.708;23.310;2023-04-28T14:35:24;3.47;;;2.20;;
16450;SDS011;12243;42.708;23.310;2023-04-28T14:37:52;3.78;;;2.00;;
16450;SDS011;12243;42.708;23.310;2023-04-28T14:40:19;2.45;;;2.03;;
16450;SDS011;12243;42.708;23.310;2023-04-28T14:42:46;2.40;;;2.20;;
16450;SDS011;12243;42.708;23.310;2023-04-28T14:45:12;4.75;;;2.25;;
16450;SDS011;12243;42.708;23.310;2023-04-28T14:47:39;3.53;;;1.98;;
16450;SDS011;12243;42.708;23.310;2023-04-28T14:50:08;3.80;;;1.92;;
16450;SDS011;12243;42.708;23.310;2023-04-28T14:52:36;3.08;;;2.08;;
16450;SDS011;12243;42.708;23.310;2023-04-28T14:55:03;3.80;;;2.08;;